Time;durP1;ratioP1;P1;durP2;ratioP2;P2;SDS_P1;SDS_P2;PMS_P1;PMS_P2;Temp;Humidity;BMP_temperature;BMP_pressure;BME280_temperature;BME280_humidity;BME280_pressure;Samples;Min_cycle;Max_cycle;Signal;HPM_P1;HPM_P2
2022/07/13 00:01:21;;;;;;;11.27;7.17;;;;;;;18.98;100.00;150807.63;5091876;28;20276;-59
2022/07/13 00:03:48;;;;;;;13.40;7.20;;;;;;;18.85;100.00;150774.53;5092068;28;20689;-57
2022/07/13 00:06:15;;;;;;;10.17;7.80;;;;;;;18.67;100.00;150730.06;5091910;28;20198;-59
2022/07/13 00:08:42;;;;;;;14.40;7.17;;;;;;;18.76;100.00;150751.63;5091694;28;20191;-58
2022/07/13 00:11:10;;;;;;;8.27;7.50;;;;;;;18.60;100.00;150712.22;5091745;28;20232;-58
2022/07/13 00:13:37;;;;;;;19.30;8.17;;;;;;;18.49;100.00;150684.22;5091975;28;20180;-58
2022/07/13 00:16:05;;;;;;;12.37;7.30;;;;;;;18.58;100.00;150708.44;5091864;28;20286;-58
2022/07/13 00:18:32;;;;;;;9.33;7.73;;;;;;;18.53;100.00;150694.44;5091697;28;20279;-58
2022/07/13 00:20:58;;;;;;;12.37;8.00;;;;;;;18.57;100.00;150704.59;5091963;28;20718;-59
2022/07/13 00:23:25;;;;;;;8.97;8.17;;;;;;;18.51;100.00;150689.28;5092014;28;20210;-58
2022/07/13 00:25:52;;;;;;;11.37;8.10;;;;;;;18.61;100.00;150716.06;5091588;28;20221;-58
2022/07/13 00:28:21;;;;;;;14.30;8.40;;;;;;;18.47;100.00;150680.38;5091899;28;20255;-58
2022/07/13 00:30:47;;;;;;;9.47;7.63;;;;;;;18.50;100.00;150686.75;5091766;28;20188;-58
2022/07/13 00:33:14;;;;;;;8.63;7.30;;;;;;;18.50;100.00;150688.00;5091560;28;20190;-59
2022/07/13 00:35:41;;;;;;;8.97;8.13;;;;;;;18.51;100.00;150690.53;5091549;28;20179;-58
2022/07/13 00:38:08;;;;;;;18.43;8.07;;;;;;;18.50;100.00;150688.00;5091502;28;20187;-58
2022/07/13 00:40:35;;;;;;;10.00;7.60;;;;;;;18.54;100.00;150698.22;5090284;28;20275;-58
2022/07/13 00:43:02;;;;;;;8.97;6.47;;;;;;;18.52;100.00;150693.16;5091642;28;20301;-58
2022/07/13 00:45:30;;;;;;;10.30;6.57;;;;;;;18.49;100.00;150685.50;5095347;28;20194;-58
2022/07/13 00:47:58;;;;;;;8.67;7.13;;;;;;;18.52;100.00;150693.16;5095566;28;20191;-58
2022/07/13 00:50:26;;;;;;;9.33;6.43;;;;;;;18.59;100.00;150709.66;5095421;28;20188;-58
2022/07/13 00:52:53;;;;;;;7.10;6.40;;;;;;;18.47;100.00;150680.38;5095773;28;20190;-58
2022/07/13 00:55:20;;;;;;;7.93;5.83;;;;;;;18.65;100.00;150726.22;5095487;28;20184;-57
2022/07/13 00:57:47;;;;;;;7.10;6.50;;;;;;;18.60;100.00;150712.22;5095613;28;20237;-58
2022/07/13 01:00:15;;;;;;;7.53;5.80;;;;;;;18.66;100.00;150727.50;5095478;28;20195;-58
2022/07/13 01:02:46;;;;;;;6.80;5.20;;;;;;;18.77;100.00;150754.19;5095246;28;20204;-58
2022/07/13 01:05:14;;;;;;;5.57;5.23;;;;;;;18.80;100.00;150761.84;5095834;28;20630;-58
2022/07/13 01:07:42;;;;;;;10.80;5.30;;;;;;;18.79;100.00;150759.28;5095526;28;20555;-58
2022/07/13 01:10:11;;;;;;;5.83;5.43;;;;;;;18.79;100.00;150760.56;5094896;28;20319;-58
2022/07/13 01:12:40;;;;;;;5.20;4.67;;;;;;;18.85;100.00;150774.53;5094163;28;20601;-58
2022/07/13 01:15:08;;;;;;;5.73;4.93;;;;;;;18.87;100.00;150780.91;5095050;28;20280;-59
2022/07/13 01:17:37;;;;;;;6.53;4.40;;;;;;;18.88;100.00;150782.19;5095024;28;20194;-59
2022/07/13 01:20:08;;;;;;;5.50;5.03;;;;;;;18.74;100.00;150746.56;5095209;28;20233;-59
2022/07/13 01:22:37;;;;;;;5.53;5.13;;;;;;;18.67;100.00;150731.28;5094706;28;20211;-59
2022/07/13 01:25:06;;;;;;;5.77;4.50;;;;;;;18.75;100.00;150750.41;5094788;28;20196;-58
2022/07/13 01:27:35;;;;;;;5.43;4.50;;;;;;;18.61;100.00;150716.06;5095104;28;20634;-58
2022/07/13 01:30:02;;;;;;;8.40;3.87;;;;;;;18.54;100.00;150698.22;5094881;28;20231;-58
2022/07/13 01:32:29;;;;;;;4.30;3.80;;;;;;;18.66;100.00;150728.78;5094928;28;20207;-59
2022/07/13 01:34:56;;;;;;;3.90;3.70;;;;;;;18.65;100.00;150726.22;5094854;28;20634;-58
2022/07/13 01:37:23;;;;;;;6.90;4.10;;;;;;;18.59;100.00;150709.66;5094850;28;20223;-59
2022/07/13 01:39:50;;;;;;;5.50;3.73;;;;;;;18.58;100.00;150708.44;5094981;28;20192;-58
2022/07/13 01:42:18;;;;;;;4.93;4.00;;;;;;;18.31;100.00;150639.69;5094666;28;20557;-58
2022/07/13 01:44:48;;;;;;;4.90;3.70;;;;;;;18.39;100.00;150660.03;5094298;28;20195;-58
2022/07/13 01:47:15;;;;;;;3.60;3.30;;;;;;;18.46;100.00;150677.81;5094721;28;20184;-58
2022/07/13 01:49:42;;;;;;;3.80;3.50;;;;;;;18.35;100.00;150649.88;5094328;28;20188;-59
2022/07/13 01:52:09;;;;;;;3.27;3.17;;;;;;;18.40;100.00;150662.59;5094639;28;20188;-58
2022/07/13 01:54:36;;;;;;;4.73;3.53;;;;;;;18.38;100.00;150657.47;5094192;28;20231;-57
2022/07/13 01:57:03;;;;;;;4.80;3.83;;;;;;;18.21;100.00;150614.25;5093638;28;20272;-58
2022/07/13 01:59:31;;;;;;;4.00;3.80;;;;;;;18.33;100.00;150644.75;5094072;28;20185;-58
2022/07/13 02:01:58;;;;;;;4.07;3.30;;;;;;;18.24;100.00;150621.91;5094022;28;20194;-58
2022/07/13 02:04:25;;;;;;;3.23;3.13;;;;;;;18.20;100.00;150611.75;5093927;28;20208;-58
2022/07/13 02:06:52;;;;;;;5.23;3.57;;;;;;;18.05;100.00;150574.84;5092709;28;20184;-58
2022/07/13 02:09:19;;;;;;;3.60;2.97;;;;;;;18.09;100.00;150583.75;5092566;28;20194;-58
2022/07/13 02:11:49;;;;;;;3.30;3.20;;;;;;;18.12;100.00;150591.41;5094263;28;20243;-58
2022/07/13 02:14:15;;;;;;;3.47;3.37;;;;;;;18.15;100.00;150600.28;5093863;28;20225;-58
2022/07/13 02:16:44;;;;;;;3.50;3.20;;;;;;;18.14;100.00;150596.47;5094097;28;20179;-58
2022/07/13 02:19:11;;;;;;;2.80;2.70;;;;;;;18.09;100.00;150583.75;5093795;28;20195;-59
2022/07/13 02:21:41;;;;;;;8.43;3.37;;;;;;;17.91;100.00;150539.22;5093848;28;20188;-58
2022/07/13 02:24:08;;;;;;;5.63;3.13;;;;;;;17.79;100.00;150508.72;5094017;28;20684;-58
2022/07/13 02:26:35;;;;;;;3.37;3.03;;;;;;;17.78;100.00;150507.47;5093750;28;20188;-58
2022/07/13 02:29:02;;;;;;;4.30;3.10;;;;;;;17.72;100.00;150490.97;5093788;28;20191;-58
2022/07/13 02:31:29;;;;;;;3.13;3.03;;;;;;;17.66;100.00;150475.69;5093430;28;20283;-58
2022/07/13 02:34:00;;;;;;;3.73;3.47;;;;;;;17.40;100.00;150409.59;5092175;28;20184;-58
2022/07/13 02:36:26;;;;;;;5.03;3.67;;;;;;;17.43;100.00;150418.47;5093452;28;20223;-58
2022/07/13 02:38:53;;;;;;;8.03;3.07;;;;;;;17.46;100.00;150426.09;5092187;28;20191;-58
2022/07/13 02:41:20;;;;;;;3.10;2.97;;;;;;;17.55;100.00;150448.97;5093538;28;20617;-59
2022/07/13 02:43:48;;;;;;;4.13;3.83;;;;;;;17.49;100.00;150433.69;5093272;28;20207;-58
2022/07/13 02:46:16;;;;;;;3.73;3.37;;;;;;;17.47;100.00;150428.66;5093246;28;20230;-58
2022/07/13 02:48:43;;;;;;;3.60;3.40;;;;;;;17.50;100.00;150436.25;5093190;28;20203;-58
2022/07/13 02:51:12;;;;;;;3.33;3.03;;;;;;;17.43;100.00;150417.22;5093242;28;20275;-58
2022/07/13 02:53:38;;;;;;;3.63;3.10;;;;;;;17.31;100.00;150388.00;5093032;28;20187;-58
2022/07/13 02:56:08;;;;;;;3.17;2.87;;;;;;;17.54;100.00;150445.16;5093306;28;20196;-58
2022/07/13 02:58:35;;;;;;;3.80;3.20;;;;;;;17.55;100.00;150447.69;5093013;28;20286;-58
2022/07/13 03:01:02;;;;;;;3.27;2.97;;;;;;;17.52;100.00;150441.34;5093293;28;20226;-58
2022/07/13 03:03:29;;;;;;;2.90;2.80;;;;;;;17.54;100.00;150446.41;5093331;28;20628;-58
2022/07/13 03:05:57;;;;;;;4.30;2.80;;;;;;;17.54;100.00;150445.16;5093284;28;20693;-58
2022/07/13 03:08:26;;;;;;;3.20;3.00;;;;;;;17.58;100.00;150456.63;5092998;28;20188;-59
2022/07/13 03:10:53;;;;;;;3.23;3.00;;;;;;;17.38;100.00;150404.50;5092635;28;20324;-57
2022/07/13 03:13:20;;;;;;;2.90;2.80;;;;;;;17.53;100.00;150443.88;5093016;28;20184;-59
2022/07/13 03:15:47;;;;;;;6.97;3.43;;;;;;;17.64;100.00;150471.91;5092632;28;20194;-58
2022/07/13 03:18:14;;;;;;;2.80;2.60;;;;;;;17.85;100.00;150524.00;5092958;28;20561;-58
2022/07/13 03:20:41;;;;;;;5.90;2.77;;;;;;;18.15;100.00;150599.00;5091403;28;20195;-59
2022/07/13 03:23:08;;;;;;;8.20;3.53;;;;;;;18.78;100.00;150756.75;5092769;28;20614;-58
2022/07/13 03:25:36;;;;;;;4.40;3.03;;;;;;;19.60;100.00;150965.44;5092520;28;20184;-58
2022/07/13 03:28:03;;;;;;;4.77;3.50;;;;;;;20.21;100.00;151118.22;5092504;28;20195;-58
2022/07/13 03:30:30;;;;;;;6.03;2.80;;;;;;;20.80;100.00;151265.97;5091182;28;20267;-59
2022/07/13 03:32:57;;;;;;;3.00;2.83;;;;;;;21.03;100.00;151324.59;5092819;28;20184;-58
2022/07/13 03:35:24;;;;;;;2.97;2.67;;;;;;;20.43;100.00;151173.00;5091182;28;20195;-58
2022/07/13 03:37:51;;;;;;;3.43;2.53;;;;;;;20.17;100.00;151106.75;5092707;28;20673;-58
2022/07/13 03:40:18;;;;;;;3.10;3.00;;;;;;;19.74;100.00;150998.53;5092151;28;20283;-58
2022/07/13 03:42:47;;;;;;;3.03;2.77;;;;;;;19.90;100.00;151040.53;5092127;28;20272;-58
2022/07/13 03:45:14;;;;;;;5.20;3.07;;;;;;;20.01;100.00;151067.28;5092338;28;20188;-59
2022/07/13 03:47:41;;;;;;;3.77;3.57;;;;;;;20.04;100.00;151074.91;5092198;28;20194;-58
2022/07/13 03:50:08;;;;;;;3.60;3.30;;;;;;;19.87;100.00;151031.63;5091991;28;20291;-59
2022/07/13 03:52:35;;;;;;;4.40;3.37;;;;;;;19.99;100.00;151063.47;5092542;28;20238;-59
2022/07/13 03:55:02;;;;;;;3.57;3.27;;;;;;;20.27;100.00;151132.22;5092263;28;20540;-59
2022/07/13 03:57:29;;;;;;;4.03;3.53;;;;;;;20.43;100.00;151173.00;5092185;28;20651;-58
2022/07/13 03:59:58;;;;;;;8.43;3.70;;;;;;;20.39;100.00;151162.81;5092224;28;20669;-59
2022/07/13 04:02:25;;;;;;;10.93;3.97;;;;;;;20.24;100.00;151125.81;5091909;28;20188;-58
2022/07/13 04:04:52;;;;;;;8.18;3.40;;;;;;;20.35;100.00;151153.91;5091947;28;20622;-58
2022/07/13 04:07:19;;;;;;;10.20;3.33;;;;;;;20.55;100.00;151202.28;5092008;28;20180;-59
2022/07/13 04:09:47;;;;;;;5.65;3.17;;;;;;;20.64;100.00;151225.22;5091835;28;20231;-59
2022/07/13 04:12:14;;;;;;;5.37;3.73;;;;;;;20.79;100.00;151263.47;5091901;28;20194;-58
2022/07/13 04:14:41;;;;;;;6.75;3.95;;;;;;;20.84;100.00;151277.44;5092400;28;20678;-59
2022/07/13 04:17:09;;;;;;;4.97;3.87;;;;;;;20.96;100.00;151306.78;5092081;28;20546;-58
2022/07/13 04:19:36;;;;;;;6.32;4.07;;;;;;;21.05;100.00;151328.44;5091227;28;20274;-58
2022/07/13 04:22:03;;;;;;;4.68;4.20;;;;;;;21.11;100.00;151344.97;5092071;28;20594;-58
2022/07/13 04:24:31;;;;;;;6.30;4.22;;;;;;;21.36;100.00;151408.72;5091602;28;20211;-60
2022/07/13 04:26:58;;;;;;;6.53;4.47;;;;;;;21.52;100.00;151448.22;5091909;28;20305;-60
2022/07/13 04:29:24;;;;;;;9.30;4.97;;;;;;;21.59;100.00;151466.09;5091815;28;20206;-59
2022/07/13 04:31:52;;;;;;;7.07;5.40;;;;;;;21.35;100.00;151404.91;5091799;28;20176;-60
2022/07/13 04:34:54;;;;;;;13.73;5.38;;;;;;;21.55;100.00;151454.63;5091812;28;20187;-60
2022/07/13 04:37:21;;;;;;;5.03;4.53;;;;;;;21.60;100.00;151467.38;5091380;28;20184;-60
2022/07/13 04:39:48;;;;;;;8.05;3.80;;;;;;;21.46;100.00;151432.97;5091781;28;20641;-60
2022/07/13 04:42:14;;;;;;;4.75;4.15;;;;;;;21.24;100.00;151378.16;5091686;28;20187;-60
2022/07/13 04:44:41;;;;;;;8.10;4.60;;;;;;;21.56;100.00;151457.13;5091227;28;20723;-59
2022/07/13 04:47:09;;;;;;;4.13;3.70;;;;;;;22.00;100.00;151568.09;5091746;28;20623;-60
2022/07/13 04:49:35;;;;;;;4.20;3.70;;;;;;;21.93;100.00;151551.53;5091725;28;20259;-59
2022/07/13 04:52:05;;;;;;;3.90;3.30;;;;;;;22.20;100.00;151620.38;5091700;28;20188;-60
2022/07/13 04:54:32;;;;;;;4.82;3.55;;;;;;;22.29;100.00;151643.31;5091333;28;20238;-59
2022/07/13 04:56:59;;;;;;;6.28;3.55;;;;;;;22.62;100.00;151724.94;5091808;28;20647;-61
2022/07/13 04:59:26;;;;;;;7.43;3.83;;;;;;;22.95;100.00;151809.19;5091427;28;20602;-59
2022/07/13 05:01:53;;;;;;;14.65;3.28;;;;;;;22.91;100.00;151799.00;5091496;28;20183;-59
2022/07/13 05:04:20;;;;;;;7.13;4.00;;;;;;;23.28;100.00;151892.13;5090422;28;20697;-59
2022/07/13 05:06:48;;;;;;;4.70;3.20;;;;;;;23.68;100.00;151994.22;5091699;28;20679;-58
2022/07/13 05:09:16;;;;;;;3.25;2.85;;;;;;;23.79;100.00;152021.06;5091241;28;20231;-60
2022/07/13 05:11:43;;;;;;;3.58;3.25;;;;;;;23.59;100.00;151970.03;5091394;28;20199;-59
2022/07/13 05:14:11;;;;;;;4.65;2.95;;;;;;;23.85;100.00;152035.13;5090049;28;20643;-59
2022/07/13 05:16:37;;;;;;;4.85;2.70;;;;;;;23.95;100.00;152061.91;5091189;28;20274;-59
2022/07/13 05:19:05;;;;;;;3.50;3.15;;;;;;;24.08;100.00;152095.09;5091702;28;20195;-60
2022/07/13 05:21:32;;;;;;;9.35;4.03;;;;;;;24.07;100.00;152092.53;5091480;28;20209;-59
2022/07/13 05:23:58;;;;;;;7.45;2.88;;;;;;;24.11;100.00;152102.75;5091545;28;20212;-61
2022/07/13 05:26:27;;;;;;;5.03;2.90;;;;;;;24.13;100.00;152107.88;5090724;28;20694;-60
2022/07/13 05:28:54;;;;;;;2.60;2.40;;;;;;;24.38;100.00;152169.19;5091339;28;20197;-59
2022/07/13 05:31:21;;;;;;;4.47;2.80;;;;;;;24.37;100.00;152166.63;5092800;28;20203;-59
2022/07/13 05:33:48;;;;;;;3.85;3.53;;;;;;;24.39;100.00;152171.75;5094405;28;20203;-60
2022/07/13 05:36:15;;;;;;;3.75;3.25;;;;;;;24.30;100.00;152148.75;5094699;28;20192;-59
2022/07/13 05:38:41;;;;;;;3.28;2.60;;;;;;;24.36;100.00;152165.34;5094728;28;20199;-59
2022/07/13 05:41:09;;;;;;;3.63;2.63;;;;;;;24.53;100.00;152207.47;5094745;28;20658;-60
2022/07/13 05:43:37;;;;;;;6.28;2.65;;;;;;;24.67;99.76;152241.97;5094799;28;20654;-59
2022/07/13 05:46:05;;;;;;;2.97;2.55;;;;;;;24.92;95.85;152305.88;5094731;28;20222;-60
2022/07/13 05:48:32;;;;;;;3.60;2.22;;;;;;;24.92;93.19;152305.88;5094385;28;20654;-59
2022/07/13 05:50:59;;;;;;;2.25;1.85;;;;;;;25.43;83.62;152436.19;5094544;28;20551;-58
2022/07/13 05:53:25;;;;;;;5.57;2.28;;;;;;;25.98;80.61;152574.28;5094615;28;20574;-60
2022/07/13 05:55:52;;;;;;;2.20;2.00;;;;;;;26.21;78.63;152631.84;5094577;28;20192;-62
2022/07/13 05:58:20;;;;;;;5.60;2.33;;;;;;;26.55;75.11;152717.53;5094137;28;20188;-60
2022/07/13 06:00:49;;;;;;;3.60;2.00;;;;;;;26.59;73.03;152729.03;5094710;28;20188;-60
2022/07/13 06:03:16;;;;;;;2.20;1.83;;;;;;;26.75;72.16;152768.66;5094389;28;20184;-59
2022/07/13 06:05:43;;;;;;;2.25;2.15;;;;;;;27.18;68.46;152877.44;5094187;28;20307;-60
2022/07/13 06:08:10;;;;;;;1.58;1.48;;;;;;;27.41;65.56;152936.31;5094744;28;20623;-59
2022/07/13 06:10:37;;;;;;;3.03;2.05;;;;;;;27.39;64.02;152931.16;5094233;28;20250;-60
2022/07/13 06:13:08;;;;;;;2.13;1.25;;;;;;;27.71;59.74;153013.09;5094398;28;20191;-60
2022/07/13 06:15:36;;;;;;;1.90;1.50;;;;;;;28.02;58.15;153089.88;5094524;28;20203;-59
2022/07/13 06:18:05;;;;;;;1.90;1.20;;;;;;;28.27;57.48;153153.94;5094487;28;20707;-60
2022/07/13 06:20:32;;;;;;;1.15;1.05;;;;;;;28.07;57.01;153102.69;5093707;28;20191;-59
2022/07/13 06:23:11;;;;;;;2.22;1.55;;;;;;;28.31;55.89;153164.16;5093716;28;20184;-60
2022/07/13 06:25:41;;;;;;;1.35;1.25;;;;;;;29.07;53.40;153356.28;5093738;28;20208;-59
2022/07/13 06:28:08;;;;;;;2.55;1.95;;;;;;;29.22;53.13;153394.72;5093748;28;20188;-60
2022/07/13 06:30:35;;;;;;;2.50;1.33;;;;;;;29.49;52.79;153463.91;5093722;28;20195;-60
2022/07/13 06:33:04;;;;;;;1.85;1.40;;;;;;;30.06;50.86;153607.47;5093551;28;20219;-60
2022/07/13 06:35:34;;;;;;;2.05;1.20;;;;;;;30.69;48.35;153767.75;5095501;28;20184;-60
2022/07/13 06:38:08;;;;;;;1.73;1.63;;;;;;;30.92;47.22;153825.47;5094415;28;20279;-61
2022/07/13 06:40:35;;;;;;;2.30;1.17;;;;;;;30.73;47.52;153776.72;5094084;28;20271;-59
2022/07/13 06:43:03;;;;;;;1.10;1.10;;;;;;;30.63;47.51;153751.09;5093248;28;20259;-59
2022/07/13 06:45:30;;;;;;;1.00;1.00;;;;;;;30.64;45.42;153754.91;5094182;28;20218;-59
2022/07/13 06:47:57;;;;;;;1.50;1.40;;;;;;;30.89;46.04;153817.78;5093915;28;20184;-59
2022/07/13 06:50:26;;;;;;;1.67;1.60;;;;;;;31.43;44.50;153953.72;5093908;28;20631;-59
2022/07/13 06:52:52;;;;;;;1.65;1.20;;;;;;;31.54;41.95;153983.28;5093502;28;20275;-60
2022/07/13 06:55:19;;;;;;;2.47;2.38;;;;;;;31.22;43.03;153901.16;5093330;28;20190;-59
2022/07/13 06:57:46;;;;;;;3.17;2.13;;;;;;;31.57;42.68;153990.94;5093507;28;20263;-60
2022/07/13 07:00:14;;;;;;;5.35;1.60;;;;;;;31.32;43.99;153925.53;5093258;28;20184;-59
2022/07/13 07:02:41;;;;;;;4.43;4.13;;;;;;;32.16;43.40;154141.16;5092592;28;20192;-60
2022/07/13 07:05:10;;;;;;;2.95;1.75;;;;;;;31.82;43.35;154052.56;5091382;28;20207;-60
2022/07/13 07:07:40;;;;;;;1.40;1.30;;;;;;;31.09;45.21;153869.09;5092502;28;20320;-61
2022/07/13 07:10:10;;;;;;;2.55;1.17;;;;;;;30.85;45.35;153807.53;5092783;28;20259;-62
2022/07/13 07:12:38;;;;;;;1.98;1.88;;;;;;;30.59;44.83;153740.84;5092787;28;20202;-61
2022/07/13 07:15:06;;;;;;;1.45;1.40;;;;;;;30.43;45.50;153699.78;5092319;28;20196;-60
2022/07/13 07:17:43;;;;;;;1.55;1.45;;;;;;;30.23;45.35;153651.06;5092701;28;20215;-61
2022/07/13 07:20:11;;;;;;;2.72;2.63;;;;;;;30.30;44.49;153669.00;5092813;28;20186;-61
2022/07/13 07:22:40;;;;;;;1.98;1.88;;;;;;;30.25;44.57;153656.22;5091352;28;20200;-60
2022/07/13 07:25:08;;;;;;;1.90;1.80;;;;;;;30.42;45.46;153697.22;5092520;28;20200;-61
2022/07/13 07:27:38;;;;;;;2.90;1.40;;;;;;;30.34;44.05;153679.25;5092471;28;20203;-60
2022/07/13 07:30:06;;;;;;;2.00;1.25;;;;;;;30.35;43.89;153681.81;5092686;28;20188;-61
2022/07/13 07:32:34;;;;;;;1.08;1.08;;;;;;;30.25;45.08;153656.22;5092906;28;20185;-61
2022/07/13 07:35:01;;;;;;;1.45;1.35;;;;;;;30.34;43.60;153679.25;5093299;28;20552;-61
2022/07/13 07:37:29;;;;;;;1.92;1.00;;;;;;;30.34;44.90;153678.00;5089009;28;20196;-61
2022/07/13 07:39:57;;;;;;;1.65;1.05;;;;;;;30.48;43.71;153712.63;5087559;28;20207;-60
2022/07/13 07:42:24;;;;;;;2.35;2.00;;;;;;;30.50;44.35;153719.06;5089707;28;20673;-61
2022/07/13 07:44:51;;;;;;;3.40;1.33;;;;;;;30.51;44.46;153720.34;5089115;28;20216;-60
2022/07/13 07:47:22;;;;;;;2.00;0.88;;;;;;;30.68;44.08;153765.16;5091434;28;20191;-62
2022/07/13 07:49:49;;;;;;;2.42;0.98;;;;;;;30.61;44.41;153745.94;5090239;28;20201;-60
2022/07/13 07:52:16;;;;;;;3.90;1.00;;;;;;;30.54;43.62;153729.31;5071012;28;20192;-61
2022/07/13 07:54:43;;;;;;;1.67;1.23;;;;;;;30.53;43.00;153725.44;5090680;28;20685;-61
2022/07/13 07:57:15;;;;;;;1.55;0.82;;;;;;;30.50;42.67;153717.78;5087024;28;20663;-60
2022/07/13 07:59:42;;;;;;;1.10;1.10;;;;;;;30.22;43.31;153648.47;5088880;28;20299;-61
2022/07/13 08:02:10;;;;;;;4.57;1.00;;;;;;;30.47;43.53;153710.09;5090620;28;20188;-60
2022/07/13 08:04:36;;;;;;;0.98;0.98;;;;;;;30.35;44.16;153680.53;5090429;28;20200;-61
2022/07/13 08:07:03;;;;;;;0.90;0.90;;;;;;;30.51;43.88;153720.34;5090158;28;20203;-61
2022/07/13 08:09:30;;;;;;;0.98;0.98;;;;;;;30.65;43.93;153756.22;5091244;28;20208;-61
2022/07/13 08:11:57;;;;;;;0.85;0.85;;;;;;;30.93;41.63;153828.03;5091277;28;20278;-61
2022/07/13 08:14:27;;;;;;;1.20;1.10;;;;;;;30.88;43.32;153815.19;5091546;28;20558;-60
2022/07/13 08:16:54;;;;;;;1.23;0.80;;;;;;;31.27;42.18;153915.22;5091138;28;20196;-59
2022/07/13 08:19:21;;;;;;;3.45;1.10;;;;;;;31.91;41.43;154076.91;5091001;28;20192;-60
2022/07/13 08:21:48;;;;;;;1.00;1.00;;;;;;;32.08;39.75;154120.56;5091289;28;20179;-59
2022/07/13 08:24:15;;;;;;;3.33;0.85;;;;;;;31.75;38.78;154035.84;5090815;28;20206;-62
2022/07/13 08:26:42;;;;;;;1.92;0.80;;;;;;;31.36;40.53;153935.78;5090808;28;20566;-61
2022/07/13 08:29:08;;;;;;;1.35;1.10;;;;;;;31.17;40.73;153889.63;5090106;28;20706;-60
2022/07/13 08:31:37;;;;;;;0.80;0.80;;;;;;;31.03;41.23;153853.69;5090928;28;20271;-60
2022/07/13 08:39:33;;;;;;;1.10;1.10;;;;;;;30.59;43.60;153740.84;5089909;28;20329;-61
2022/07/13 08:42:00;;;;;;;2.28;1.27;;;;;;;30.49;44.66;153715.19;5087913;28;20229;-62
2022/07/13 08:44:27;;;;;;;1.33;1.23;;;;;;;30.47;43.29;153710.09;5091352;28;20260;-60
2022/07/13 08:46:57;;;;;;;1.42;1.13;;;;;;;30.82;43.57;153801.09;5090357;28;20274;-61
2022/07/13 08:49:24;;;;;;;4.63;1.25;;;;;;;30.85;42.76;153807.53;5090038;28;20188;-61
2022/07/13 08:51:53;;;;;;;1.38;1.27;;;;;;;30.91;43.68;153821.59;5090743;28;20266;-59
2022/07/13 08:54:20;;;;;;;3.00;1.10;;;;;;;31.22;43.73;153902.44;5088002;28;20557;-61
2022/07/13 08:56:47;;;;;;;1.38;1.27;;;;;;;31.25;42.62;153908.84;5090278;28;20191;-60
2022/07/13 08:59:14;;;;;;;5.82;1.17;;;;;;;31.52;40.63;153976.81;5090857;28;20624;-60
2022/07/13 09:01:41;;;;;;;1.17;1.08;;;;;;;31.92;41.58;154079.47;5090329;28;20674;-61
2022/07/13 09:04:14;;;;;;;2.70;1.15;;;;;;;32.12;39.44;154130.84;5090610;28;20268;-60
2022/07/13 09:06:46;;;;;;;6.13;1.33;;;;;;;32.07;39.83;154116.69;5087484;28;20210;-61
2022/07/13 09:09:32;;;;;;;5.07;2.45;;;;;;;31.76;40.56;154038.44;5089173;28;20697;-63
2022/07/13 09:12:17;;;;;;;0.75;0.70;;;;;;;31.61;38.49;153999.97;5090397;28;20196;-61
2022/07/13 09:14:50;;;;;;;0.95;0.90;;;;;;;31.39;39.89;153943.47;5083423;28;20201;-60
2022/07/13 09:17:31;;;;;;;1.25;1.05;;;;;;;31.38;40.46;153940.91;5081834;28;20271;-61
2022/07/13 09:20:04;;;;;;;2.08;0.90;;;;;;;31.24;38.69;153907.56;5095668;28;20199;-60
2022/07/13 09:22:31;;;;;;;1.23;0.80;;;;;;;31.48;38.20;153967.84;5093338;28;20573;-60
2022/07/13 09:24:58;;;;;;;1.23;0.60;;;;;;;31.46;37.75;153961.41;5088737;28;20228;-61
2022/07/13 09:27:28;;;;;;;1.83;0.82;;;;;;;31.44;37.04;153956.31;5092228;28;20595;-62
2022/07/13 09:29:54;;;;;;;2.08;0.93;;;;;;;31.46;36.76;153961.41;5093727;28;20200;-60
2022/07/13 09:32:22;;;;;;;0.50;0.50;;;;;;;31.38;36.11;153940.91;5095438;28;20544;-60
2022/07/13 09:34:54;;;;;;;1.77;0.80;;;;;;;31.51;35.28;153975.53;5090448;28;20647;-61
2022/07/13 09:37:24;;;;;;;4.28;1.55;;;;;;;31.82;35.13;154052.56;5078177;28;20204;-59
2022/07/13 09:40:06;;;;;;;1.58;0.60;;;;;;;32.26;33.95;154165.47;5085364;28;20211;-60
2022/07/13 09:42:35;;;;;;;1.25;0.85;;;;;;;32.63;33.00;154260.50;5099259;28;20176;-60
2022/07/13 09:47:57;;;;;;;2.72;0.80;;;;;;;33.56;30.98;154494.22;5082933;28;20242;-60
2022/07/13 09:50:25;;;;;;;0.73;0.40;;;;;;;33.78;30.57;154552.03;5077726;28;20210;-60
2022/07/13 09:52:54;;;;;;;0.90;0.50;;;;;;;33.61;31.52;154507.06;5093448;28;20191;-60
2022/07/13 09:55:24;;;;;;;0.55;0.55;;;;;;;33.72;31.75;154536.63;5078436;28;20215;-60
2022/07/13 09:57:54;;;;;;;1.92;0.55;;;;;;;34.17;30.90;154650.97;5077334;28;20204;-60
2022/07/13 10:00:21;;;;;;;0.93;0.60;;;;;;;33.77;31.37;154548.19;5077979;28;20179;-60
2022/07/13 10:02:49;;;;;;;0.40;0.40;;;;;;;33.65;31.59;154518.69;5077617;28;20191;-61
2022/07/13 10:05:17;;;;;;;0.50;0.50;;;;;;;33.65;30.05;154517.34;5078424;28;20613;-60
2022/07/13 10:07:46;;;;;;;0.57;0.57;;;;;;;33.43;30.32;154463.41;5075113;28;20215;-60
2022/07/13 10:10:16;;;;;;;1.60;1.50;;;;;;;33.57;31.75;154498.03;5077046;28;20263;-61
2022/07/13 10:12:44;;;;;;;1.40;0.98;;;;;;;33.42;30.92;154460.81;5079698;28;20511;-60
2022/07/13 10:15:13;;;;;;;1.38;1.38;;;;;;;33.21;32.05;154405.59;5078677;28;20244;-60
2022/07/13 10:17:42;;;;;;;2.67;0.70;;;;;;;33.35;31.28;154441.56;5077815;28;20307;-59
2022/07/13 10:20:13;;;;;;;1.02;0.80;;;;;;;33.26;31.50;154418.47;5078048;28;20181;-60
2022/07/13 10:22:43;;;;;;;3.05;0.90;;;;;;;33.15;31.32;154391.47;5078956;28;20242;-61
2022/07/13 10:25:12;;;;;;;0.52;0.52;;;;;;;33.21;32.36;154406.91;5078585;28;20291;-61
2022/07/13 10:27:42;;;;;;;3.75;0.70;;;;;;;32.98;31.17;154349.06;5077963;28;20276;-61
2022/07/13 10:30:11;;;;;;;0.52;0.52;;;;;;;33.22;30.72;154409.47;5078621;28;20191;-60
2022/07/13 10:32:40;;;;;;;2.28;0.70;;;;;;;33.13;31.26;154385.03;5077781;28;20189;-61
2022/07/13 10:35:10;;;;;;;0.50;0.50;;;;;;;33.26;31.54;154419.75;5078366;28;20185;-61
2022/07/13 10:38:14;;;;;;;1.42;0.50;;;;;;;33.41;31.02;154456.97;5077349;28;20227;-60
2022/07/13 10:40:41;;;;;;;0.60;0.60;;;;;;;33.58;30.60;154499.31;5077689;28;20279;-61
2022/07/13 10:43:21;;;;;;;1.95;0.70;;;;;;;33.76;30.54;154545.63;5076563;28;20192;-61
2022/07/13 10:45:51;;;;;;;1.42;0.52;;;;;;;33.53;30.85;154487.75;5111290;28;20210;-61
2022/07/13 10:48:43;;;;;;;1.35;0.93;;;;;;;33.04;31.68;154364.50;5097141;28;20184;-61
2022/07/13 10:51:23;;;;;;;0.52;0.52;;;;;;;32.99;31.77;154351.66;5097007;28;20276;-61
2022/07/13 10:54:10;;;;;;;1.33;0.70;;;;;;;32.76;31.40;154292.56;5100251;28;20187;-59
2022/07/13 10:56:39;;;;;;;2.13;0.70;;;;;;;32.21;31.96;154151.41;5098021;28;20261;-59
2022/07/13 10:59:08;;;;;;;0.55;0.55;;;;;;;31.92;31.63;154079.47;5097643;28;20562;-61
2022/07/13 11:01:44;;;;;;;2.55;0.52;;;;;;;31.58;31.94;153993.53;5094148;28;20195;-59
2022/07/13 11:04:13;;;;;;;0.40;0.40;;;;;;;31.45;31.95;153958.84;5096046;28;20634;-61
2022/07/13 11:07:07;;;;;;;2.17;0.60;;;;;;;30.95;32.42;153833.13;5084865;28;20209;-61
2022/07/13 11:09:34;;;;;;;4.20;1.08;;;;;;;31.18;33.03;153892.19;5075052;28;20196;-61
2022/07/13 11:12:01;;;;;;;0.70;0.70;;;;;;;31.38;32.94;153942.19;5084377;28;20203;-60
2022/07/13 11:15:16;;;;;;;2.05;0.50;;;;;;;31.24;34.07;153906.25;5095414;28;20627;-60
2022/07/13 11:17:52;;;;;;;1.38;0.52;;;;;;;31.06;33.17;153861.44;5095748;28;20623;-60
2022/07/13 11:20:19;;;;;;;1.38;0.73;;;;;;;31.09;34.69;153867.81;5095102;28;20187;-62
2022/07/13 11:25:50;;;;;;;1.98;0.50;;;;;;;30.97;34.01;153838.28;5091947;28;20215;-61
2022/07/13 11:28:30;;;;;;;0.50;0.50;;;;;;;30.92;34.08;153825.47;5094120;28;20187;-63
2022/07/13 11:31:03;;;;;;;0.60;0.50;;;;;;;30.90;33.60;153819.03;5092685;28;20235;-63
2022/07/13 11:33:33;;;;;;;0.68;0.68;;;;;;;30.79;35.07;153793.41;5086204;28;20200;-62
2022/07/13 11:36:00;;;;;;;1.02;0.90;;;;;;;30.62;34.74;153748.53;5080716;28;20197;-61
2022/07/13 11:38:35;;;;;;;0.75;0.75;;;;;;;30.66;35.63;153760.06;5079612;28;20219;-61
2022/07/13 11:41:03;;;;;;;2.08;0.70;;;;;;;30.72;35.78;153774.19;5090938;28;20200;-61